sensor_id;sensor_type;location;lat;lon;timestamp;P1;durP1;ratioP1;P2;durP2;ratioP2
46334;SDS011;32051;48.882;9.210;2023-12-20T00:01:39;1.05;;;0.98;;
46334;SDS011;32051;48.882;9.210;2023-12-20T00:04:05;1.48;;;1.10;;
46334;SDS011;32051;48.882;9.210;2023-12-20T00:06:32;1.25;;;1.15;;
46334;SDS011;32051;48.882;9.210;2023-12-20T00:08:59;0.73;;;0.70;;
46334;SDS011;32051;48.882;9.210;2023-12-20T00:11:25;1.20;;;1.10;;
46334;SDS011;32051;48.882;9.210;2023-12-20T00:13:51;1.33;;;0.75;;
46334;SDS011;32051;48.882;9.210;2023-12-20T00:16:17;0.90;;;0.90;;
46334;SDS011;32051;48.882;9.210;2023-12-20T00:18:43;0.93;;;0.90;;
46334;SDS011;32051;48.882;9.210;2023-12-20T00:21:09;0.98;;;0.98;;
46334;SDS011;32051;48.882;9.210;2023-12-20T00:23:35;1.38;;;1.20;;
46334;SDS011;32051;48.882;9.210;2023-12-20T00:26:01;1.02;;;1.02;;
46334;SDS011;32051;48.882;9.210;2023-12-20T00:28:27;1.63;;;1.52;;
46334;SDS011;32051;48.882;9.210;2023-12-20T00:30:53;1.02;;;1.02;;
46334;SDS011;32051;48.882;9.210;2023-12-20T00:33:19;1.88;;;1.38;;
46334;SDS011;32051;48.882;9.210;2023-12-20T00:35:45;1.45;;;1.33;;
46334;SDS011;32051;48.882;9.210;2023-12-20T00:38:12;1.02;;;0.98;;
46334;SDS011;32051;48.882;9.210;2023-12-20T00:40:38;3.63;;;1.42;;
46334;SDS011;32051;48.882;9.210;2023-12-20T00:43:04;1.55;;;1.45;;
46334;SDS011;32051;48.882;9.210;2023-12-20T00:45:30;1.30;;;1.30;;
46334;SDS011;32051;48.882;9.210;2023-12-20T00:47:56;1.23;;;1.23;;
46334;SDS011;32051;48.882;9.210;2023-12-20T00:50:22;1.33;;;1.27;;
46334;SDS011;32051;48.882;9.210;2023-12-20T00:52:48;1.85;;;1.50;;
46334;SDS011;32051;48.882;9.210;2023-12-20T00:55:14;3.63;;;1.60;;
46334;SDS011;32051;48.882;9.210;2023-12-20T00:57:40;2.17;;;1.98;;
46334;SDS011;32051;48.882;9.210;2023-12-20T01:00:06;1.58;;;1.48;;
46334;SDS011;32051;48.882;9.210;2023-12-20T01:02:34;5.70;;;2.55;;
46334;SDS011;32051;48.882;9.210;2023-12-20T01:05:01;1.10;;;1.00;;
46334;SDS011;32051;48.882;9.210;2023-12-20T01:07:27;2.00;;;1.77;;
46334;SDS011;32051;48.882;9.210;2023-12-20T01:09:54;1.98;;;1.40;;
46334;SDS011;32051;48.882;9.210;2023-12-20T01:12:20;2.10;;;1.77;;
46334;SDS011;32051;48.882;9.210;2023-12-20T01:14:46;1.75;;;1.65;;
46334;SDS011;32051;48.882;9.210;2023-12-20T01:17:12;2.53;;;1.83;;
46334;SDS011;32051;48.882;9.210;2023-12-20T01:19:38;1.63;;;1.45;;
46334;SDS011;32051;48.882;9.210;2023-12-20T01:22:04;1.35;;;1.25;;
46334;SDS011;32051;48.882;9.210;2023-12-20T01:24:30;1.20;;;1.20;;
46334;SDS011;32051;48.882;9.210;2023-12-20T01:26:57;1.23;;;1.23;;
46334;SDS011;32051;48.882;9.210;2023-12-20T01:29:23;1.40;;;1.30;;
46334;SDS011;32051;48.882;9.210;2023-12-20T01:31:49;1.75;;;1.65;;
46334;SDS011;32051;48.882;9.210;2023-12-20T01:34:15;1.42;;;1.33;;
46334;SDS011;32051;48.882;9.210;2023-12-20T01:36:41;1.85;;;1.75;;
46334;SDS011;32051;48.882;9.210;2023-12-20T01:39:07;1.80;;;1.70;;
46334;SDS011;32051;48.882;9.210;2023-12-20T01:41:33;2.05;;;1.95;;
46334;SDS011;32051;48.882;9.210;2023-12-20T01:43:59;1.75;;;1.65;;
46334;SDS011;32051;48.882;9.210;2023-12-20T01:46:25;2.03;;;1.70;;
46334;SDS011;32051;48.882;9.210;2023-12-20T01:48:51;5.70;;;2.10;;
46334;SDS011;32051;48.882;9.210;2023-12-20T01:51:17;5.38;;;1.90;;
46334;SDS011;32051;48.882;9.210;2023-12-20T01:53:44;2.13;;;1.92;;
46334;SDS011;32051;48.882;9.210;2023-12-20T01:56:10;2.10;;;2.00;;
46334;SDS011;32051;48.882;9.210;2023-12-20T01:58:38;2.38;;;2.17;;
46334;SDS011;32051;48.882;9.210;2023-12-20T02:01:05;2.58;;;2.35;;
46334;SDS011;32051;48.882;9.210;2023-12-20T02:03:31;2.03;;;1.92;;
46334;SDS011;32051;48.882;9.210;2023-12-20T02:05:57;2.22;;;2.13;;
46334;SDS011;32051;48.882;9.210;2023-12-20T02:08:23;2.92;;;1.88;;
46334;SDS011;32051;48.882;9.210;2023-12-20T02:10:49;2.20;;;2.10;;
46334;SDS011;32051;48.882;9.210;2023-12-20T02:13:16;2.90;;;2.45;;
46334;SDS011;32051;48.882;9.210;2023-12-20T02:15:42;2.22;;;2.03;;
46334;SDS011;32051;48.882;9.210;2023-12-20T02:18:08;1.90;;;1.80;;
46334;SDS011;32051;48.882;9.210;2023-12-20T02:20:35;1.92;;;1.83;;
46334;SDS011;32051;48.882;9.210;2023-12-20T02:23:01;1.90;;;1.80;;
46334;SDS011;32051;48.882;9.210;2023-12-20T02:25:28;1.60;;;1.50;;
46334;SDS011;32051;48.882;9.210;2023-12-20T02:27:54;2.05;;;1.83;;
46334;SDS011;32051;48.882;9.210;2023-12-20T02:30:20;3.45;;;1.98;;
46334;SDS011;32051;48.882;9.210;2023-12-20T02:32:47;2.92;;;1.50;;
46334;SDS011;32051;48.882;9.210;2023-12-20T02:35:13;1.40;;;1.30;;
46334;SDS011;32051;48.882;9.210;2023-12-20T02:37:39;2.97;;;1.45;;
46334;SDS011;32051;48.882;9.210;2023-12-20T02:40:05;1.20;;;1.10;;
46334;SDS011;32051;48.882;9.210;2023-12-20T02:42:32;1.00;;;0.90;;
46334;SDS011;32051;48.882;9.210;2023-12-20T02:44:58;0.65;;;0.65;;
46334;SDS011;32051;48.882;9.210;2023-12-20T02:47:24;0.85;;;0.55;;
46334;SDS011;32051;48.882;9.210;2023-12-20T02:49:50;0.40;;;0.40;;
46334;SDS011;32051;48.882;9.210;2023-12-20T02:52:17;0.40;;;0.40;;
46334;SDS011;32051;48.882;9.210;2023-12-20T02:54:44;0.30;;;0.30;;
46334;SDS011;32051;48.882;9.210;2023-12-20T02:57:10;0.57;;;0.57;;
46334;SDS011;32051;48.882;9.210;2023-12-20T02:59:36;0.28;;;0.28;;
46334;SDS011;32051;48.882;9.210;2023-12-20T03:02:02;0.68;;;0.68;;
46334;SDS011;32051;48.882;9.210;2023-12-20T03:04:28;3.22;;;0.30;;
46334;SDS011;32051;48.882;9.210;2023-12-20T03:06:54;0.30;;;0.30;;
46334;SDS011;32051;48.882;9.210;2023-12-20T03:09:20;0.20;;;0.20;;
46334;SDS011;32051;48.882;9.210;2023-12-20T03:11:46;0.38;;;0.38;;
46334;SDS011;32051;48.882;9.210;2023-12-20T03:14:12;0.20;;;0.20;;
46334;SDS011;32051;48.882;9.210;2023-12-20T03:16:38;0.50;;;0.50;;
46334;SDS011;32051;48.882;9.210;2023-12-20T03:19:04;0.73;;;0.35;;
46334;SDS011;32051;48.882;9.210;2023-12-20T03:21:30;0.60;;;0.60;;
46334;SDS011;32051;48.882;9.210;2023-12-20T03:23:56;0.40;;;0.40;;
46334;SDS011;32051;48.882;9.210;2023-12-20T03:26:22;0.30;;;0.30;;
46334;SDS011;32051;48.882;9.210;2023-12-20T03:28:48;0.45;;;0.40;;
46334;SDS011;32051;48.882;9.210;2023-12-20T03:31:14;0.40;;;0.40;;
46334;SDS011;32051;48.882;9.210;2023-12-20T03:33:40;0.28;;;0.28;;
46334;SDS011;32051;48.882;9.210;2023-12-20T03:36:06;0.55;;;0.55;;
46334;SDS011;32051;48.882;9.210;2023-12-20T03:38:33;0.30;;;0.30;;
46334;SDS011;32051;48.882;9.210;2023-12-20T03:40:59;0.30;;;0.30;;
46334;SDS011;32051;48.882;9.210;2023-12-20T03:43:25;0.40;;;0.40;;
46334;SDS011;32051;48.882;9.210;2023-12-20T03:45:51;0.50;;;0.50;;
46334;SDS011;32051;48.882;9.210;2023-12-20T03:48:17;0.30;;;0.30;;
46334;SDS011;32051;48.882;9.210;2023-12-20T03:50:43;0.40;;;0.40;;
46334;SDS011;32051;48.882;9.210;2023-12-20T03:53:09;0.45;;;0.45;;
46334;SDS011;32051;48.882;9.210;2023-12-20T03:55:35;0.30;;;0.30;;
46334;SDS011;32051;48.882;9.210;2023-12-20T03:58:01;0.30;;;0.30;;
46334;SDS011;32051;48.882;9.210;2023-12-20T04:00:27;0.40;;;0.40;;
46334;SDS011;32051;48.882;9.210;2023-12-20T04:02:53;0.43;;;0.43;;
46334;SDS011;32051;48.882;9.210;2023-12-20T04:05:19;0.50;;;0.43;;
46334;SDS011;32051;48.882;9.210;2023-12-20T04:07:45;0.35;;;0.35;;
46334;SDS011;32051;48.882;9.210;2023-12-20T04:10:11;0.68;;;0.68;;
46334;SDS011;32051;48.882;9.210;2023-12-20T04:12:37;1.33;;;0.40;;
46334;SDS011;32051;48.882;9.210;2023-12-20T04:15:04;0.40;;;0.40;;
46334;SDS011;32051;48.882;9.210;2023-12-20T04:17:35;0.40;;;0.40;;
46334;SDS011;32051;48.882;9.210;2023-12-20T04:20:01;0.50;;;0.40;;
46334;SDS011;32051;48.882;9.210;2023-12-20T04:22:27;0.30;;;0.30;;
46334;SDS011;32051;48.882;9.210;2023-12-20T04:24:53;0.70;;;0.70;;
46334;SDS011;32051;48.882;9.210;2023-12-20T04:27:19;0.50;;;0.50;;
46334;SDS011;32051;48.882;9.210;2023-12-20T04:29:46;0.75;;;0.75;;
46334;SDS011;32051;48.882;9.210;2023-12-20T04:32:12;0.43;;;0.43;;
46334;SDS011;32051;48.882;9.210;2023-12-20T04:34:38;0.30;;;0.30;;
46334;SDS011;32051;48.882;9.210;2023-12-20T04:37:04;0.30;;;0.30;;
46334;SDS011;32051;48.882;9.210;2023-12-20T04:39:30;0.30;;;0.30;;
46334;SDS011;32051;48.882;9.210;2023-12-20T04:41:57;0.25;;;0.25;;
46334;SDS011;32051;48.882;9.210;2023-12-20T04:44:23;0.32;;;0.32;;
46334;SDS011;32051;48.882;9.210;2023-12-20T04:46:50;0.25;;;0.25;;
46334;SDS011;32051;48.882;9.210;2023-12-20T04:49:16;1.23;;;0.80;;
46334;SDS011;32051;48.882;9.210;2023-12-20T04:51:42;0.38;;;0.38;;
46334;SDS011;32051;48.882;9.210;2023-12-20T04:54:08;1.17;;;0.57;;
46334;SDS011;32051;48.882;9.210;2023-12-20T04:56:35;0.32;;;0.32;;
46334;SDS011;32051;48.882;9.210;2023-12-20T04:59:01;0.35;;;0.35;;
46334;SDS011;32051;48.882;9.210;2023-12-20T05:01:27;0.55;;;0.30;;
46334;SDS011;32051;48.882;9.210;2023-12-20T05:03:53;0.85;;;0.50;;
46334;SDS011;32051;48.882;9.210;2023-12-20T05:06:20;0.30;;;0.30;;
46334;SDS011;32051;48.882;9.210;2023-12-20T05:08:46;0.70;;;0.70;;
46334;SDS011;32051;48.882;9.210;2023-12-20T05:11:12;1.05;;;0.57;;
46334;SDS011;32051;48.882;9.210;2023-12-20T05:13:39;0.35;;;0.30;;
46334;SDS011;32051;48.882;9.210;2023-12-20T05:16:05;1.17;;;0.40;;
46334;SDS011;32051;48.882;9.210;2023-12-20T05:18:31;0.40;;;0.40;;
46334;SDS011;32051;48.882;9.210;2023-12-20T05:20:57;0.47;;;0.47;;
46334;SDS011;32051;48.882;9.210;2023-12-20T05:23:24;0.80;;;0.80;;
46334;SDS011;32051;48.882;9.210;2023-12-20T05:25:50;0.50;;;0.50;;
46334;SDS011;32051;48.882;9.210;2023-12-20T05:28:16;0.50;;;0.50;;
46334;SDS011;32051;48.882;9.210;2023-12-20T05:30:42;0.73;;;0.73;;
46334;SDS011;32051;48.882;9.210;2023-12-20T05:33:08;0.98;;;0.98;;
46334;SDS011;32051;48.882;9.210;2023-12-20T05:35:34;0.60;;;0.60;;
46334;SDS011;32051;48.882;9.210;2023-12-20T05:38:00;0.70;;;0.70;;
46334;SDS011;32051;48.882;9.210;2023-12-20T05:40:26;1.00;;;1.00;;
46334;SDS011;32051;48.882;9.210;2023-12-20T05:42:53;0.70;;;0.70;;
46334;SDS011;32051;48.882;9.210;2023-12-20T05:45:19;0.95;;;0.95;;
46334;SDS011;32051;48.882;9.210;2023-12-20T05:47:45;0.85;;;0.80;;
46334;SDS011;32051;48.882;9.210;2023-12-20T05:50:11;0.88;;;0.88;;
46334;SDS011;32051;48.882;9.210;2023-12-20T05:52:37;0.98;;;0.98;;
46334;SDS011;32051;48.882;9.210;2023-12-20T05:55:04;0.90;;;0.90;;
46334;SDS011;32051;48.882;9.210;2023-12-20T05:57:30;1.17;;;1.08;;
46334;SDS011;32051;48.882;9.210;2023-12-20T05:59:56;0.80;;;0.80;;
46334;SDS011;32051;48.882;9.210;2023-12-20T06:02:22;1.30;;;1.20;;
46334;SDS011;32051;48.882;9.210;2023-12-20T06:04:48;2.78;;;1.20;;
46334;SDS011;32051;48.882;9.210;2023-12-20T06:07:14;0.98;;;0.98;;
46334;SDS011;32051;48.882;9.210;2023-12-20T06:09:41;0.90;;;0.90;;
46334;SDS011;32051;48.882;9.210;2023-12-20T06:12:07;1.00;;;1.00;;
46334;SDS011;32051;48.882;9.210;2023-12-20T06:14:33;2.78;;;0.90;;
46334;SDS011;32051;48.882;9.210;2023-12-20T06:17:00;0.98;;;0.98;;
46334;SDS011;32051;48.882;9.210;2023-12-20T06:19:26;0.95;;;0.95;;
46334;SDS011;32051;48.882;9.210;2023-12-20T06:21:52;1.00;;;1.00;;
46334;SDS011;32051;48.882;9.210;2023-12-20T06:24:19;1.00;;;1.00;;
46334;SDS011;32051;48.882;9.210;2023-12-20T06:26:46;0.93;;;0.93;;
46334;SDS011;32051;48.882;9.210;2023-12-20T06:29:12;1.05;;;1.00;;
46334;SDS011;32051;48.882;9.210;2023-12-20T06:31:38;1.00;;;1.00;;
46334;SDS011;32051;48.882;9.210;2023-12-20T06:34:04;1.67;;;0.95;;
46334;SDS011;32051;48.882;9.210;2023-12-20T06:36:30;4.57;;;1.45;;
46334;SDS011;32051;48.882;9.210;2023-12-20T06:38:56;1.50;;;1.40;;
46334;SDS011;32051;48.882;9.210;2023-12-20T06:41:23;1.55;;;1.45;;
46334;SDS011;32051;48.882;9.210;2023-12-20T06:43:49;1.58;;;1.48;;
46334;SDS011;32051;48.882;9.210;2023-12-20T06:46:16;1.63;;;1.52;;
46334;SDS011;32051;48.882;9.210;2023-12-20T06:48:42;3.55;;;1.90;;
46334;SDS011;32051;48.882;9.210;2023-12-20T06:51:15;1.90;;;1.80;;
46334;SDS011;32051;48.882;9.210;2023-12-20T06:53:41;1.80;;;1.70;;
46334;SDS011;32051;48.882;9.210;2023-12-20T06:56:07;2.13;;;2.03;;
46334;SDS011;32051;48.882;9.210;2023-12-20T06:58:35;2.47;;;2.28;;
46334;SDS011;32051;48.882;9.210;2023-12-20T07:01:02;1.73;;;1.63;;
46334;SDS011;32051;48.882;9.210;2023-12-20T07:03:29;1.83;;;1.73;;
46334;SDS011;32051;48.882;9.210;2023-12-20T07:05:55;2.10;;;2.00;;
46334;SDS011;32051;48.882;9.210;2023-12-20T07:08:22;2.90;;;2.70;;
46334;SDS011;32051;48.882;9.210;2023-12-20T07:10:48;2.35;;;2.22;;
46334;SDS011;32051;48.882;9.210;2023-12-20T07:13:14;2.65;;;2.45;;
46334;SDS011;32051;48.882;9.210;2023-12-20T07:15:40;3.13;;;2.92;;
46334;SDS011;32051;48.882;9.210;2023-12-20T07:18:06;3.00;;;2.80;;
46334;SDS011;32051;48.882;9.210;2023-12-20T07:20:32;3.10;;;2.90;;
46334;SDS011;32051;48.882;9.210;2023-12-20T07:22:58;2.97;;;2.83;;
46334;SDS011;32051;48.882;9.210;2023-12-20T07:25:24;5.03;;;2.50;;
46334;SDS011;32051;48.882;9.210;2023-12-20T07:27:50;2.85;;;2.45;;
46334;SDS011;32051;48.882;9.210;2023-12-20T07:30:16;2.95;;;2.75;;
46334;SDS011;32051;48.882;9.210;2023-12-20T07:32:42;3.35;;;3.15;;
46334;SDS011;32051;48.882;9.210;2023-12-20T07:35:08;2.95;;;2.75;;
46334;SDS011;32051;48.882;9.210;2023-12-20T07:37:34;3.70;;;3.50;;
46334;SDS011;32051;48.882;9.210;2023-12-20T07:40:00;2.40;;;2.30;;
46334;SDS011;32051;48.882;9.210;2023-12-20T07:42:28;3.58;;;3.38;;
46334;SDS011;32051;48.882;9.210;2023-12-20T07:44:54;2.38;;;2.28;;
46334;SDS011;32051;48.882;9.210;2023-12-20T07:47:20;2.75;;;2.55;;
46334;SDS011;32051;48.882;9.210;2023-12-20T07:49:48;3.38;;;2.42;;
46334;SDS011;32051;48.882;9.210;2023-12-20T07:52:14;2.20;;;2.10;;
46334;SDS011;32051;48.882;9.210;2023-12-20T07:54:40;4.68;;;2.78;;
46334;SDS011;32051;48.882;9.210;2023-12-20T07:57:06;3.38;;;2.20;;
46334;SDS011;32051;48.882;9.210;2023-12-20T07:59:32;2.20;;;2.10;;
46334;SDS011;32051;48.882;9.210;2023-12-20T08:01:58;4.05;;;3.70;;
46334;SDS011;32051;48.882;9.210;2023-12-20T08:04:24;2.10;;;2.00;;
46334;SDS011;32051;48.882;9.210;2023-12-20T08:06:50;2.55;;;2.35;;
46334;SDS011;32051;48.882;9.210;2023-12-20T08:09:16;3.08;;;2.15;;
46334;SDS011;32051;48.882;9.210;2023-12-20T08:11:46;4.40;;;2.72;;
46334;SDS011;32051;48.882;9.210;2023-12-20T08:14:12;6.45;;;2.60;;
46334;SDS011;32051;48.882;9.210;2023-12-20T08:16:38;2.55;;;2.13;;
46334;SDS011;32051;48.882;9.210;2023-12-20T08:19:04;4.25;;;3.30;;
46334;SDS011;32051;48.882;9.210;2023-12-20T08:21:30;4.32;;;2.40;;
46334;SDS011;32051;48.882;9.210;2023-12-20T08:23:56;2.13;;;2.03;;
46334;SDS011;32051;48.882;9.210;2023-12-20T08:26:22;2.67;;;2.47;;
46334;SDS011;32051;48.882;9.210;2023-12-20T08:28:49;3.55;;;2.30;;
46334;SDS011;32051;48.882;9.210;2023-12-20T08:31:16;2.90;;;2.53;;
46334;SDS011;32051;48.882;9.210;2023-12-20T08:33:45;3.33;;;2.47;;
46334;SDS011;32051;48.882;9.210;2023-12-20T08:36:12;4.75;;;2.35;;
46334;SDS011;32051;48.882;9.210;2023-12-20T08:38:38;3.58;;;2.17;;
46334;SDS011;32051;48.882;9.210;2023-12-20T08:41:04;2.30;;;2.10;;
46334;SDS011;32051;48.882;9.210;2023-12-20T08:43:31;2.88;;;2.67;;
46334;SDS011;32051;48.882;9.210;2023-12-20T08:45:57;2.20;;;2.10;;
46334;SDS011;32051;48.882;9.210;2023-12-20T08:48:23;4.10;;;2.35;;
46334;SDS011;32051;48.882;9.210;2023-12-20T08:50:49;2.13;;;1.95;;
46334;SDS011;32051;48.882;9.210;2023-12-20T08:53:17;1.73;;;1.63;;
46334;SDS011;32051;48.882;9.210;2023-12-20T08:55:43;3.03;;;1.90;;
46334;SDS011;32051;48.882;9.210;2023-12-20T08:58:09;3.05;;;1.67;;
46334;SDS011;32051;48.882;9.210;2023-12-20T09:00:35;2.17;;;2.08;;
46334;SDS011;32051;48.882;9.210;2023-12-20T09:03:01;2.50;;;2.30;;
46334;SDS011;32051;48.882;9.210;2023-12-20T09:05:28;2.08;;;1.88;;
46334;SDS011;32051;48.882;9.210;2023-12-20T09:07:54;9.50;;;2.92;;
46334;SDS011;32051;48.882;9.210;2023-12-20T09:10:20;2.40;;;2.10;;
46334;SDS011;32051;48.882;9.210;2023-12-20T09:12:52;2.45;;;2.25;;
46334;SDS011;32051;48.882;9.210;2023-12-20T09:15:25;2.85;;;2.65;;
46334;SDS011;32051;48.882;9.210;2023-12-20T09:17:51;3.63;;;3.17;;
46334;SDS011;32051;48.882;9.210;2023-12-20T09:20:17;2.15;;;2.05;;
46334;SDS011;32051;48.882;9.210;2023-12-20T09:22:43;2.15;;;1.88;;
46334;SDS011;32051;48.882;9.210;2023-12-20T09:25:10;2.75;;;1.90;;
46334;SDS011;32051;48.882;9.210;2023-12-20T09:27:37;4.30;;;2.15;;
46334;SDS011;32051;48.882;9.210;2023-12-20T09:30:04;3.75;;;1.80;;
46334;SDS011;32051;48.882;9.210;2023-12-20T09:32:30;2.35;;;2.15;;
46334;SDS011;32051;48.882;9.210;2023-12-20T09:34:56;5.65;;;1.90;;
46334;SDS011;32051;48.882;9.210;2023-12-20T09:37:24;1.60;;;1.50;;
46334;SDS011;32051;48.882;9.210;2023-12-20T09:39:50;4.22;;;1.80;;
46334;SDS011;32051;48.882;9.210;2023-12-20T09:42:17;7.53;;;2.47;;
46334;SDS011;32051;48.882;9.210;2023-12-20T09:44:45;8.20;;;1.45;;
46334;SDS011;32051;48.882;9.210;2023-12-20T09:47:11;3.13;;;1.58;;
46334;SDS011;32051;48.882;9.210;2023-12-20T09:49:38;1.25;;;0.88;;
46334;SDS011;32051;48.882;9.210;2023-12-20T09:52:04;7.57;;;1.33;;
46334;SDS011;32051;48.882;9.210;2023-12-20T09:54:30;4.93;;;1.33;;
46334;SDS011;32051;48.882;9.210;2023-12-20T09:56:56;2.55;;;1.30;;
46334;SDS011;32051;48.882;9.210;2023-12-20T09:59:23;2.67;;;1.77;;
46334;SDS011;32051;48.882;9.210;2023-12-20T10:01:49;2.95;;;1.40;;
46334;SDS011;32051;48.882;9.210;2023-12-20T10:04:16;3.67;;;1.05;;
46334;SDS011;32051;48.882;9.210;2023-12-20T10:06:42;3.50;;;1.60;;
46334;SDS011;32051;48.882;9.210;2023-12-20T10:09:09;3.53;;;1.08;;
46334;SDS011;32051;48.882;9.210;2023-12-20T10:11:39;7.35;;;1.15;;
46334;SDS011;32051;48.882;9.210;2023-12-20T10:14:06;4.78;;;1.20;;
46334;SDS011;32051;48.882;9.210;2023-12-20T10:16:32;4.32;;;1.40;;
46334;SDS011;32051;48.882;9.210;2023-12-20T10:18:59;3.30;;;1.10;;
46334;SDS011;32051;48.882;9.210;2023-12-20T10:21:26;2.85;;;1.60;;
46334;SDS011;32051;48.882;9.210;2023-12-20T10:23:55;3.60;;;1.00;;
46334;SDS011;32051;48.882;9.210;2023-12-20T10:26:22;8.55;;;2.45;;
46334;SDS011;32051;48.882;9.210;2023-12-20T10:28:56;5.63;;;1.45;;
46334;SDS011;32051;48.882;9.210;2023-12-20T10:31:29;2.72;;;1.60;;
46334;SDS011;32051;48.882;9.210;2023-12-20T10:33:58;2.58;;;1.10;;
46334;SDS011;32051;48.882;9.210;2023-12-20T10:36:28;3.60;;;0.98;;
46334;SDS011;32051;48.882;9.210;2023-12-20T10:38:55;2.13;;;1.00;;
46334;SDS011;32051;48.882;9.210;2023-12-20T10:43:53;4.47;;;1.58;;
46334;SDS011;32051;48.882;9.210;2023-12-20T10:46:19;1.42;;;1.00;;
46334;SDS011;32051;48.882;9.210;2023-12-20T10:48:45;1.83;;;1.40;;
46334;SDS011;32051;48.882;9.210;2023-12-20T10:51:13;11.27;;;1.75;;
46334;SDS011;32051;48.882;9.210;2023-12-20T10:53:40;3.33;;;1.10;;
46334;SDS011;32051;48.882;9.210;2023-12-20T10:56:06;4.40;;;0.77;;
46334;SDS011;32051;48.882;9.210;2023-12-20T10:58:33;4.03;;;2.05;;
46334;SDS011;32051;48.882;9.210;2023-12-20T11:01:01;4.28;;;1.77;;
46334;SDS011;32051;48.882;9.210;2023-12-20T11:03:28;2.45;;;0.85;;
46334;SDS011;32051;48.882;9.210;2023-12-20T11:08:39;4.55;;;1.23;;
46334;SDS011;32051;48.882;9.210;2023-12-20T11:11:07;8.45;;;1.65;;
46334;SDS011;32051;48.882;9.210;2023-12-20T11:13:48;1.65;;;1.13;;
46334;SDS011;32051;48.882;9.210;2023-12-20T11:16:18;3.42;;;1.20;;
46334;SDS011;32051;48.882;9.210;2023-12-20T11:18:44;8.88;;;1.70;;
46334;SDS011;32051;48.882;9.210;2023-12-20T11:21:10;10.20;;;2.28;;
46334;SDS011;32051;48.882;9.210;2023-12-20T11:23:38;5.95;;;1.08;;
46334;SDS011;32051;48.882;9.210;2023-12-20T11:26:04;6.40;;;1.98;;
46334;SDS011;32051;48.882;9.210;2023-12-20T11:28:30;3.60;;;1.60;;
46334;SDS011;32051;48.882;9.210;2023-12-20T11:30:57;2.83;;;1.27;;
46334;SDS011;32051;48.882;9.210;2023-12-20T11:33:29;7.72;;;1.20;;
46334;SDS011;32051;48.882;9.210;2023-12-20T11:35:56;4.13;;;1.15;;
46334;SDS011;32051;48.882;9.210;2023-12-20T11:38:23;4.85;;;1.30;;
46334;SDS011;32051;48.882;9.210;2023-12-20T11:40:50;6.00;;;1.40;;
46334;SDS011;32051;48.882;9.210;2023-12-20T11:46:03;1.55;;;1.45;;
46334;SDS011;32051;48.882;9.210;2023-12-20T11:48:30;2.20;;;1.45;;
46334;SDS011;32051;48.882;9.210;2023-12-20T11:50:57;26.13;;;3.80;;
46334;SDS011;32051;48.882;9.210;2023-12-20T11:53:23;6.28;;;1.60;;
46334;SDS011;32051;48.882;9.210;2023-12-20T11:55:49;3.03;;;1.65;;
46334;SDS011;32051;48.882;9.210;2023-12-20T11:58:15;5.85;;;1.40;;
46334;SDS011;32051;48.882;9.210;2023-12-20T12:00:41;3.55;;;2.08;;
46334;SDS011;32051;48.882;9.210;2023-12-20T12:03:14;4.43;;;1.05;;
46334;SDS011;32051;48.882;9.210;2023-12-20T12:05:41;4.78;;;1.58;;
46334;SDS011;32051;48.882;9.210;2023-12-20T12:08:07;5.72;;;1.30;;
46334;SDS011;32051;48.882;9.210;2023-12-20T12:10:33;7.88;;;1.00;;
46334;SDS011;32051;48.882;9.210;2023-12-20T12:12:59;3.35;;;1.95;;
46334;SDS011;32051;48.882;9.210;2023-12-20T12:15:26;4.13;;;1.10;;
46334;SDS011;32051;48.882;9.210;2023-12-20T12:17:55;3.25;;;1.13;;
46334;SDS011;32051;48.882;9.210;2023-12-20T12:20:21;3.22;;;1.50;;
46334;SDS011;32051;48.882;9.210;2023-12-20T12:23:02;2.92;;;1.60;;
46334;SDS011;32051;48.882;9.210;2023-12-20T12:25:31;3.78;;;1.27;;
46334;SDS011;32051;48.882;9.210;2023-12-20T12:27:58;2.70;;;1.30;;
46334;SDS011;32051;48.882;9.210;2023-12-20T12:30:24;2.10;;;1.30;;
46334;SDS011;32051;48.882;9.210;2023-12-20T12:32:55;2.70;;;2.35;;
46334;SDS011;32051;48.882;9.210;2023-12-20T12:35:21;6.60;;;1.02;;
46334;SDS011;32051;48.882;9.210;2023-12-20T12:37:47;2.58;;;1.02;;
46334;SDS011;32051;48.882;9.210;2023-12-20T12:40:14;4.82;;;1.60;;
46334;SDS011;32051;48.882;9.210;2023-12-20T12:42:41;2.85;;;1.20;;
46334;SDS011;32051;48.882;9.210;2023-12-20T12:45:07;3.45;;;1.30;;
46334;SDS011;32051;48.882;9.210;2023-12-20T12:47:34;2.33;;;0.88;;
46334;SDS011;32051;48.882;9.210;2023-12-20T12:50:00;5.53;;;1.13;;
46334;SDS011;32051;48.882;9.210;2023-12-20T12:52:26;5.45;;;1.20;;
46334;SDS011;32051;48.882;9.210;2023-12-20T12:54:52;5.75;;;1.20;;
46334;SDS011;32051;48.882;9.210;2023-12-20T12:57:19;3.50;;;1.35;;
46334;SDS011;32051;48.882;9.210;2023-12-20T12:59:45;13.30;;;2.22;;
46334;SDS011;32051;48.882;9.210;2023-12-20T13:02:12;1.60;;;0.93;;
46334;SDS011;32051;48.882;9.210;2023-12-20T13:04:39;1.88;;;1.67;;
46334;SDS011;32051;48.882;9.210;2023-12-20T13:07:05;4.78;;;0.82;;
46334;SDS011;32051;48.882;9.210;2023-12-20T13:09:31;5.75;;;1.38;;
46334;SDS011;32051;48.882;9.210;2023-12-20T13:11:57;3.33;;;1.35;;
46334;SDS011;32051;48.882;9.210;2023-12-20T13:14:24;4.05;;;1.88;;
46334;SDS011;32051;48.882;9.210;2023-12-20T13:16:50;5.28;;;1.63;;
46334;SDS011;32051;48.882;9.210;2023-12-20T13:19:16;5.57;;;1.23;;
46334;SDS011;32051;48.882;9.210;2023-12-20T13:21:42;7.97;;;1.10;;
46334;SDS011;32051;48.882;9.210;2023-12-20T13:24:08;4.40;;;1.15;;
46334;SDS011;32051;48.882;9.210;2023-12-20T13:26:34;4.68;;;1.00;;
46334;SDS011;32051;48.882;9.210;2023-12-20T13:29:01;4.22;;;1.00;;
46334;SDS011;32051;48.882;9.210;2023-12-20T13:31:27;6.13;;;1.02;;
46334;SDS011;32051;48.882;9.210;2023-12-20T13:33:53;3.42;;;1.92;;
46334;SDS011;32051;48.882;9.210;2023-12-20T13:36:19;4.18;;;1.10;;
46334;SDS011;32051;48.882;9.210;2023-12-20T13:38:49;4.50;;;1.75;;
46334;SDS011;32051;48.882;9.210;2023-12-20T13:41:15;5.18;;;0.90;;
46334;SDS011;32051;48.882;9.210;2023-12-20T13:43:41;3.28;;;1.80;;
46334;SDS011;32051;48.882;9.210;2023-12-20T13:46:08;3.35;;;1.17;;
46334;SDS011;32051;48.882;9.210;2023-12-20T13:48:34;3.40;;;1.88;;
46334;SDS011;32051;48.882;9.210;2023-12-20T13:51:00;5.85;;;1.13;;
46334;SDS011;32051;48.882;9.210;2023-12-20T13:53:27;4.57;;;1.08;;
46334;SDS011;32051;48.882;9.210;2023-12-20T13:55:53;5.93;;;0.98;;
46334;SDS011;32051;48.882;9.210;2023-12-20T13:58:19;5.15;;;1.17;;
46334;SDS011;32051;48.882;9.210;2023-12-20T14:00:46;2.45;;;1.00;;
46334;SDS011;32051;48.882;9.210;2023-12-20T14:03:12;1.92;;;1.65;;
46334;SDS011;32051;48.882;9.210;2023-12-20T14:05:38;3.55;;;1.00;;
46334;SDS011;32051;48.882;9.210;2023-12-20T14:08:04;3.67;;;1.60;;
46334;SDS011;32051;48.882;9.210;2023-12-20T14:10:30;3.70;;;1.20;;
46334;SDS011;32051;48.882;9.210;2023-12-20T14:12:56;1.15;;;0.90;;
46334;SDS011;32051;48.882;9.210;2023-12-20T14:15:22;5.88;;;1.33;;
46334;SDS011;32051;48.882;9.210;2023-12-20T14:17:50;2.35;;;1.63;;
46334;SDS011;32051;48.882;9.210;2023-12-20T14:20:16;8.38;;;1.40;;
46334;SDS011;32051;48.882;9.210;2023-12-20T14:22:43;2.05;;;1.00;;
46334;SDS011;32051;48.882;9.210;2023-12-20T14:25:12;4.60;;;1.30;;
46334;SDS011;32051;48.882;9.210;2023-12-20T14:27:39;8.73;;;1.98;;
46334;SDS011;32051;48.882;9.210;2023-12-20T14:30:06;5.28;;;1.73;;
46334;SDS011;32051;48.882;9.210;2023-12-20T14:32:34;2.33;;;1.00;;
46334;SDS011;32051;48.882;9.210;2023-12-20T14:35:02;3.13;;;1.42;;
46334;SDS011;32051;48.882;9.210;2023-12-20T14:37:29;2.10;;;1.25;;
46334;SDS011;32051;48.882;9.210;2023-12-20T14:39:55;3.08;;;1.38;;
46334;SDS011;32051;48.882;9.210;2023-12-20T14:42:21;3.53;;;1.40;;
46334;SDS011;32051;48.882;9.210;2023-12-20T14:44:47;7.45;;;1.40;;
46334;SDS011;32051;48.882;9.210;2023-12-20T14:47:14;6.40;;;1.95;;
46334;SDS011;32051;48.882;9.210;2023-12-20T14:49:40;5.70;;;1.60;;
46334;SDS011;32051;48.882;9.210;2023-12-20T14:52:07;2.78;;;1.27;;